Lord Nelson — GHJV — position and weather

sailwx.info

Track history (hours):
 
Tides and Currents Weather Stations Pressure Air Temp Water Temp Dewpoint Dewpoint Depression Visibility Wind Speed Wind Dir Waves Ship Positions

Lord Nelson (United Kingdom)

Ship's website: http://www.jst.org.uk/

Last reported at 2017-Feb-21 07:30 UTC. Time now 2017-Feb-22 17:37 UTC.
Position N 28°09' W 014°03'.

Length 54.7 m; beam 9 m; draft 4.1 m.

Type: Sailing vessel. MMSI: 232003690.

Date/timePositionNaut miles runAvg speedWind from/ knotsBaromVisibWave heightAir tempDewpointWater temp
2017-Feb-21 07:30N 28°09' W 014°03'4 4.5
2017-Feb-21 06:32N 28°06' W 014°06'23 4.2
2017-Feb-21 01:07N 27°57' W 014°30'4 7.1
2017-Feb-21 00:33N 27°58' W 014°34'7 7.2
2017-Feb-20 23:33N 28°00' W 014°42'7 7.1
2017-Feb-20 22:33N 28°02' W 014°50'7 6.9
2017-Feb-20 21:33N 28°03' W 014°58'6 6.4
2017-Feb-20 20:33N 28°04' W 015°05'6 5.6
2017-Feb-20 19:34N 28°02' W 015°11'5 4.8
2017-Feb-20 18:34N 28°04' W 015°16'4 4.2
2017-Feb-20 17:34N 28°06' W 015°20'5 4.8
2017-Feb-20 16:27N 28°08' W 015°26'0 0.0
2017-Feb-20 15:27N 28°08' W 015°26'0 0.0
2017-Feb-20 14:27N 28°08' W 015°26'0 0.0
2017-Feb-20 13:27N 28°08' W 015°26'0 0.0
2017-Feb-20 12:24N 28°08' W 015°26'0 0.0
2017-Feb-20 11:30N 28°08' W 015°26'0 0.0
2017-Feb-20 10:30N 28°08' W 015°26'0 0.0
2017-Feb-20 09:15N 28°08' W 015°26'0 0.0
2017-Feb-18 10:22N 28°08' W 015°26'0 0.0
2017-Feb-18 09:25N 28°08' W 015°26'0 0.0
2017-Feb-18 08:25N 28°08' W 015°26'0 0.0
2017-Feb-18 07:25N 28°08' W 015°26'0 0.0
2017-Feb-18 06:22N 28°08' W 015°26'0 0.0
2017-Feb-18 05:25N 28°08' W 015°26'0 0.0
2017-Feb-18 04:28N 28°08' W 015°26'0 0.0
2017-Feb-18 03:28N 28°08' W 015°26'0 0.0
2017-Feb-18 02:25N 28°08' W 015°26'0 0.0
2017-Feb-18 01:28N 28°08' W 015°26'0 0.0
2017-Feb-18 00:28N 28°08' W 015°26'0 0.0
2017-Feb-17 23:31N 28°08' W 015°26'0 0.0
2017-Feb-17 22:28N 28°08' W 015°26'0 0.0
2017-Feb-17 21:28N 28°08' W 015°26'0 0.0
2017-Feb-17 20:31N 28°08' W 015°26'0 0.0
2017-Feb-17 19:31N 28°08' W 015°26'0 0.0
2017-Feb-17 18:28N 28°08' W 015°26'0 0.0
2017-Feb-17 17:31N 28°08' W 015°26'0 0.0
2017-Feb-17 16:31N 28°08' W 015°26'0 0.0
2017-Feb-17 15:31N 28°08' W 015°26'0 0.0
2017-Feb-17 14:31N 28°08' W 015°26'3 2.7
2017-Feb-17 13:33N 28°07' W 015°23'4 3.7
2017-Feb-17 12:34N 28°09' W 015°19'4 4.5
2017-Feb-17 11:33N 28°12' W 015°15'6 5.6
2017-Feb-17 10:34N 28°16' W 015°11'4 3.8
2017-Feb-17 09:34N 28°19' W 015°09'1 1.3
2017-Feb-17 08:33N 28°20' W 015°08'2 2.1
2017-Feb-17 07:33N 28°21' W 015°06'3 2.5
2017-Feb-17 06:33N 28°23' W 015°03'3 3.3
2017-Feb-17 05:33N 28°24' W 014°60'4 3.9
2017-Feb-17 04:33N 28°25' W 014°56'4 4.1
2017-Feb-17 03:33N 28°27' W 014°51'4 3.7
2017-Feb-17 02:33N 28°28' W 014°47'3 2.8
2017-Feb-17 01:33N 28°29' W 014°45'2 2.3
2017-Feb-17 00:33N 28°30' W 014°42'2 2.2
2017-Feb-16 23:33N 28°31' W 014°40'3 3.0
2017-Feb-16 22:33N 28°32' W 014°37'3 3.3
2017-Feb-16 21:33N 28°33' W 014°33'4 3.8
2017-Feb-16 20:33N 28°35' W 014°29'5 5.1
2017-Feb-16 19:33N 28°37' W 014°24'6 5.7
2017-Feb-16 18:33N 28°39' W 014°18'6 6.0
2017-Feb-16 17:33N 28°41' W 014°11'6 5.4
2017-Feb-16 16:33N 28°43' W 014°05'4 4.2
2017-Feb-16 15:33N 28°44' W 014°01'3 2.8
2017-Feb-16 14:32N 28°46' W 013°58'3 3.3
2017-Feb-16 13:33N 28°48' W 013°56'2 2.3
2017-Feb-16 12:33N 28°50' W 013°54'1 0.7
2017-Feb-16 11:33N 28°50' W 013°53'2 2.0
2017-Feb-16 10:33N 28°51' W 013°51'1 1.1
2017-Feb-16 09:29N 28°51' W 013°50'0 0.0
2017-Feb-16 08:29N 28°51' W 013°50'0 0.0
2017-Feb-16 07:29N 28°51' W 013°50'0 0.0
2017-Feb-16 06:32N 28°51' W 013°50'0 0.0
2017-Feb-16 04:29N 28°51' W 013°50'0 0.0
2017-Feb-15 16:27N 28°51' W 013°50'5 5.8
2017-Feb-15 15:33N 28°46' W 013°51'7 6.6
2017-Feb-15 14:33N 28°40' W 013°48'8 7.5
2017-Feb-15 13:33N 28°33' W 013°48'26 0.9
2017-Feb-14 08:31N 28°09' W 014°01'4 4.1
2017-Feb-14 07:33N 28°08' W 013°57'29 4.1
2017-Feb-14 00:20N 27°58' W 014°28'4 4.4
2017-Feb-13 23:33N 27°58' W 014°32'4 4.5
2017-Feb-13 22:33N 27°59' W 014°37'6 5.6
2017-Feb-13 21:33N 28°02' W 014°43'7 6.7
2017-Feb-13 20:34N 28°06' W 014°49'7 6.7
2017-Feb-13 19:33N 28°09' W 014°55'7 6.7
2017-Feb-13 18:34N 28°12' W 015°02'7 6.8
2017-Feb-13 17:34N 28°17' W 015°07'5 5.1
2017-Feb-13 16:33N 28°20' W 015°12'2 1.9
2017-Feb-13 15:33N 28°18' W 015°13'2 1.5
2017-Feb-13 14:33N 28°16' W 015°13'2 2.0
2017-Feb-13 13:21N 28°14' W 015°12'2 2.3
2017-Feb-13 12:33N 28°12' W 015°12'2 1.9
2017-Feb-13 11:34N 28°10' W 015°12'1 1.4
2017-Feb-13 10:33N 28°09' W 015°12'3 2.4
2017-Feb-13 09:27N 28°08' W 015°15'5 5.6
2017-Feb-13 08:33N 28°09' W 015°21'4 3.9
2017-Feb-13 07:33N 28°08' W 015°25'0 0.0
2017-Feb-13 06:26N 28°08' W 015°25'0 0.0
2017-Feb-13 05:26N 28°08' W 015°25'0 0.0
2017-Feb-13 04:26N 28°08' W 015°25'0 0.0
2017-Feb-13 03:23N 28°08' W 015°25'0 0.0
2017-Feb-13 02:23N 28°08' W 015°25'0 0.0
2017-Feb-13 01:26N 28°08' W 015°25'0 0.0
2017-Feb-13 00:29N 28°08' W 015°25'0 0.0
2017-Feb-12 23:29N 28°08' W 015°25'0 0.0
2017-Feb-12 22:29N 28°08' W 015°25'0 0.0
2017-Feb-12 21:28N 28°08' W 015°25'0 0.0
2017-Feb-12 20:28N 28°08' W 015°25'0 0.0
2017-Feb-12 19:31N 28°08' W 015°25'0 0.0
2017-Feb-12 18:31N 28°08' W 015°25'0 0.0
2017-Feb-12 17:31N 28°08' W 015°25'0 0.0
2017-Feb-12 16:31N 28°08' W 015°25'0 0.0
2017-Feb-12 15:28N 28°08' W 015°25'0 0.0
2017-Feb-12 14:31N 28°08' W 015°25'0 0.0
2017-Feb-12 13:31N 28°08' W 015°25'0 0.0
2017-Feb-12 12:19N 28°08' W 015°25'0 0.0
2017-Feb-12 11:31N 28°08' W 015°25'0 0.0
2017-Feb-12 10:19N 28°08' W 015°25'0 0.0
2017-Feb-12 09:31N 28°08' W 015°25'0 0.0
2017-Feb-12 08:31N 28°08' W 015°25'0 0.0
2017-Feb-12 07:16N 28°08' W 015°25'0 0.0
2017-Feb-12 06:31N 28°08' W 015°25'0 0.0
2017-Feb-12 05:22N 28°08' W 015°25'0 0.0
2017-Feb-12 04:22N 28°08' W 015°25'0 0.0
2017-Feb-12 03:19N 28°08' W 015°25'0 0.0
2017-Feb-12 02:25N 28°08' W 015°25'0 0.0
2017-Feb-12 01:22N 28°08' W 015°25'0 0.0
2017-Feb-12 00:22N 28°08' W 015°25'0 0.0
2017-Feb-11 23:22N 28°08' W 015°25'0 0.0
2017-Feb-11 22:25N 28°08' W 015°25'0 0.0
2017-Feb-11 21:25N 28°08' W 015°25'0 0.0
2017-Feb-11 20:28N 28°08' W 015°25'0 0.0
2017-Feb-11 19:25N 28°08' W 015°25'0 0.0
2017-Feb-11 18:28N 28°08' W 015°25'0 0.0
2017-Feb-11 17:28N 28°08' W 015°25'0 0.0
2017-Feb-11 16:25N 28°08' W 015°25'0 0.0
2017-Feb-11 15:31N 28°08' W 015°25'0 0.0
2017-Feb-11 14:31N 28°08' W 015°25'0 0.0
2017-Feb-11 13:30N 28°08' W 015°25'0 0.0
2017-Feb-11 12:27N 28°08' W 015°25'0 0.0
2017-Feb-11 11:12N 28°08' W 015°25'0 0.0
2017-Feb-11 10:18N 28°08' W 015°25'0 0.0
2017-Feb-11 09:33N 28°08' W 015°25'0 0.0
2017-Feb-11 08:33N 28°08' W 015°25'0 0.0
2017-Feb-11 07:30N 28°08' W 015°25'  
Track history (hours):
 
Tides and Currents Weather Stations Pressure Air Temp Water Temp Dewpoint Dewpoint Depression Visibility Wind Speed Wind Dir Waves Ship Positions

Lord Nelson (United Kingdom)

Ship's website: http://www.jst.org.uk/

Last reported at 2017-Feb-21 07:30 UTC. Time now 2017-Feb-22 17:37 UTC.
Position N 28°09' W 014°03'.

Length 54.7 m; beam 9 m; draft 4.1 m.

Type: Sailing vessel. MMSI: 232003690.

Date/timePositionNaut miles runAvg speedWind from/ knotsBaromVisibWave heightAir tempDewpointWater temp
2017-Feb-21 07:30N 28°09' W 014°03'4 4.5
2017-Feb-21 06:32N 28°06' W 014°06'23 4.2
2017-Feb-21 01:07N 27°57' W 014°30'4 7.1
2017-Feb-21 00:33N 27°58' W 014°34'7 7.2
2017-Feb-20 23:33N 28°00' W 014°42'7 7.1
2017-Feb-20 22:33N 28°02' W 014°50'7 6.9
2017-Feb-20 21:33N 28°03' W 014°58'6 6.4
2017-Feb-20 20:33N 28°04' W 015°05'6 5.6
2017-Feb-20 19:34N 28°02' W 015°11'5 4.8
2017-Feb-20 18:34N 28°04' W 015°16'4 4.2
2017-Feb-20 17:34N 28°06' W 015°20'5 4.8
2017-Feb-20 16:27N 28°08' W 015°26'0 0.0
2017-Feb-20 15:27N 28°08' W 015°26'0 0.0
2017-Feb-20 14:27N 28°08' W 015°26'0 0.0
2017-Feb-20 13:27N 28°08' W 015°26'0 0.0
2017-Feb-20 12:24N 28°08' W 015°26'0 0.0
2017-Feb-20 11:30N 28°08' W 015°26'0 0.0
2017-Feb-20 10:30N 28°08' W 015°26'0 0.0
2017-Feb-20 09:15N 28°08' W 015°26'0 0.0
2017-Feb-18 10:22N 28°08' W 015°26'0 0.0
2017-Feb-18 09:25N 28°08' W 015°26'0 0.0
2017-Feb-18 08:25N 28°08' W 015°26'0 0.0
2017-Feb-18 07:25N 28°08' W 015°26'0 0.0
2017-Feb-18 06:22N 28°08' W 015°26'0 0.0
2017-Feb-18 05:25N 28°08' W 015°26'0 0.0
2017-Feb-18 04:28N 28°08' W 015°26'0 0.0
2017-Feb-18 03:28N 28°08' W 015°26'0 0.0
2017-Feb-18 02:25N 28°08' W 015°26'0 0.0
2017-Feb-18 01:28N 28°08' W 015°26'0 0.0
2017-Feb-18 00:28N 28°08' W 015°26'0 0.0
2017-Feb-17 23:31N 28°08' W 015°26'0 0.0
2017-Feb-17 22:28N 28°08' W 015°26'0 0.0
2017-Feb-17 21:28N 28°08' W 015°26'0 0.0
2017-Feb-17 20:31N 28°08' W 015°26'0 0.0
2017-Feb-17 19:31N 28°08' W 015°26'0 0.0
2017-Feb-17 18:28N 28°08' W 015°26'0 0.0
2017-Feb-17 17:31N 28°08' W 015°26'0 0.0
2017-Feb-17 16:31N 28°08' W 015°26'0 0.0
2017-Feb-17 15:31N 28°08' W 015°26'0 0.0
2017-Feb-17 14:31N 28°08' W 015°26'3 2.7
2017-Feb-17 13:33N 28°07' W 015°23'4 3.7
2017-Feb-17 12:34N 28°09' W 015°19'4 4.5
2017-Feb-17 11:33N 28°12' W 015°15'6 5.6
2017-Feb-17 10:34N 28°16' W 015°11'4 3.8
2017-Feb-17 09:34N 28°19' W 015°09'1 1.3
2017-Feb-17 08:33N 28°20' W 015°08'2 2.1
2017-Feb-17 07:33N 28°21' W 015°06'3 2.5
2017-Feb-17 06:33N 28°23' W 015°03'3 3.3
2017-Feb-17 05:33N 28°24' W 014°60'4 3.9
2017-Feb-17 04:33N 28°25' W 014°56'4 4.1
2017-Feb-17 03:33N 28°27' W 014°51'4 3.7
2017-Feb-17 02:33N 28°28' W 014°47'3 2.8
2017-Feb-17 01:33N 28°29' W 014°45'2 2.3
2017-Feb-17 00:33N 28°30' W 014°42'2 2.2
2017-Feb-16 23:33N 28°31' W 014°40'3 3.0
2017-Feb-16 22:33N 28°32' W 014°37'3 3.3
2017-Feb-16 21:33N 28°33' W 014°33'4 3.8
2017-Feb-16 20:33N 28°35' W 014°29'5 5.1
2017-Feb-16 19:33N 28°37' W 014°24'6 5.7
2017-Feb-16 18:33N 28°39' W 014°18'6 6.0
2017-Feb-16 17:33N 28°41' W 014°11'6 5.4
2017-Feb-16 16:33N 28°43' W 014°05'4 4.2
2017-Feb-16 15:33N 28°44' W 014°01'3 2.8
2017-Feb-16 14:32N 28°46' W 013°58'3 3.3
2017-Feb-16 13:33N 28°48' W 013°56'2 2.3
2017-Feb-16 12:33N 28°50' W 013°54'1 0.7
2017-Feb-16 11:33N 28°50' W 013°53'2 2.0
2017-Feb-16 10:33N 28°51' W 013°51'1 1.1
2017-Feb-16 09:29N 28°51' W 013°50'0 0.0
2017-Feb-16 08:29N 28°51' W 013°50'0 0.0
2017-Feb-16 07:29N 28°51' W 013°50'0 0.0
2017-Feb-16 06:32N 28°51' W 013°50'0 0.0
2017-Feb-16 04:29N 28°51' W 013°50'0 0.0
2017-Feb-15 16:27N 28°51' W 013°50'5 5.8
2017-Feb-15 15:33N 28°46' W 013°51'7 6.6
2017-Feb-15 14:33N 28°40' W 013°48'8 7.5
2017-Feb-15 13:33N 28°33' W 013°48'26 0.9
2017-Feb-14 08:31N 28°09' W 014°01'4 4.1
2017-Feb-14 07:33N 28°08' W 013°57'29 4.1
2017-Feb-14 00:20N 27°58' W 014°28'4 4.4
2017-Feb-13 23:33N 27°58' W 014°32'4 4.5
2017-Feb-13 22:33N 27°59' W 014°37'6 5.6
2017-Feb-13 21:33N 28°02' W 014°43'7 6.7
2017-Feb-13 20:34N 28°06' W 014°49'7 6.7
2017-Feb-13 19:33N 28°09' W 014°55'7 6.7
2017-Feb-13 18:34N 28°12' W 015°02'7 6.8
2017-Feb-13 17:34N 28°17' W 015°07'5 5.1
2017-Feb-13 16:33N 28°20' W 015°12'2 1.9
2017-Feb-13 15:33N 28°18' W 015°13'2 1.5
2017-Feb-13 14:33N 28°16' W 015°13'2 2.0
2017-Feb-13 13:21N 28°14' W 015°12'2 2.3
2017-Feb-13 12:33N 28°12' W 015°12'2 1.9
2017-Feb-13 11:34N 28°10' W 015°12'1 1.4
2017-Feb-13 10:33N 28°09' W 015°12'3 2.4
2017-Feb-13 09:27N 28°08' W 015°15'5 5.6
2017-Feb-13 08:33N 28°09' W 015°21'4 3.9
2017-Feb-13 07:33N 28°08' W 015°25'0 0.0
2017-Feb-13 06:26N 28°08' W 015°25'0 0.0
2017-Feb-13 05:26N 28°08' W 015°25'0 0.0
2017-Feb-13 04:26N 28°08' W 015°25'0 0.0
2017-Feb-13 03:23N 28°08' W 015°25'0 0.0
2017-Feb-13 02:23N 28°08' W 015°25'0 0.0
2017-Feb-13 01:26N 28°08' W 015°25'0 0.0
2017-Feb-13 00:29N 28°08' W 015°25'0 0.0
2017-Feb-12 23:29N 28°08' W 015°25'0 0.0
2017-Feb-12 22:29N 28°08' W 015°25'0 0.0
2017-Feb-12 21:28N 28°08' W 015°25'0 0.0
2017-Feb-12 20:28N 28°08' W 015°25'0 0.0
2017-Feb-12 19:31N 28°08' W 015°25'0 0.0
2017-Feb-12 18:31N 28°08' W 015°25'0 0.0
2017-Feb-12 17:31N 28°08' W 015°25'0 0.0
2017-Feb-12 16:31N 28°08' W 015°25'0 0.0
2017-Feb-12 15:28N 28°08' W 015°25'0 0.0
2017-Feb-12 14:31N 28°08' W 015°25'0 0.0
2017-Feb-12 13:31N 28°08' W 015°25'0 0.0
2017-Feb-12 12:19N 28°08' W 015°25'0 0.0
2017-Feb-12 11:31N 28°08' W 015°25'0 0.0
2017-Feb-12 10:19N 28°08' W 015°25'0 0.0
2017-Feb-12 09:31N 28°08' W 015°25'0 0.0
2017-Feb-12 08:31N 28°08' W 015°25'0 0.0
2017-Feb-12 07:16N 28°08' W 015°25'0 0.0
2017-Feb-12 06:31N 28°08' W 015°25'0 0.0
2017-Feb-12 05:22N 28°08' W 015°25'0 0.0
2017-Feb-12 04:22N 28°08' W 015°25'0 0.0
2017-Feb-12 03:19N 28°08' W 015°25'0 0.0
2017-Feb-12 02:25N 28°08' W 015°25'0 0.0
2017-Feb-12 01:22N 28°08' W 015°25'0 0.0
2017-Feb-12 00:22N 28°08' W 015°25'0 0.0
2017-Feb-11 23:22N 28°08' W 015°25'0 0.0
2017-Feb-11 22:25N 28°08' W 015°25'0 0.0
2017-Feb-11 21:25N 28°08' W 015°25'0 0.0
2017-Feb-11 20:28N 28°08' W 015°25'0 0.0
2017-Feb-11 19:25N 28°08' W 015°25'0 0.0
2017-Feb-11 18:28N 28°08' W 015°25'0 0.0
2017-Feb-11 17:28N 28°08' W 015°25'0 0.0
2017-Feb-11 16:25N 28°08' W 015°25'0 0.0
2017-Feb-11 15:31N 28°08' W 015°25'0 0.0
2017-Feb-11 14:31N 28°08' W 015°25'0 0.0
2017-Feb-11 13:30N 28°08' W 015°25'0 0.0
2017-Feb-11 12:27N 28°08' W 015°25'0 0.0
2017-Feb-11 11:12N 28°08' W 015°25'0 0.0
2017-Feb-11 10:18N 28°08' W 015°25'0 0.0
2017-Feb-11 09:33N 28°08' W 015°25'0 0.0
2017-Feb-11 08:33N 28°08' W 015°25'0 0.0
2017-Feb-11 07:30N 28°08' W 015°25'  

Dump ship's entire track history